EXS99P EGNM-EGAA
Flight info
| Callsign | EXS99P |
|---|---|
| Flight time | 0h 38m |
| Altitude | 24000 |
| Route | NELSA DCT CROFT Y70 KOLID L70 GUNTU Z196 DIGMA M146 IPSET P6 BELZU |
| Aircraft | A21N/M-SDE3FGHIRWY/LB1 |
Departure
| Time | 2026-04-28 09:08 |
|---|---|
| Airport | Leeds Bradford Airport (EGNM) |
Arrival
| Time | 2026-04-28 09:46 |
|---|---|
| Airport | Belfast International Airport (EGAA) |
| Time | Latitude | Longitude | Altitude | Speed | Heading |
|---|---|---|---|---|---|
| 2026-04-28 08:46 | 53.86660 | -1.65250 | 662 ft | 0 kts | 181° |
| 2026-04-28 09:01 | 53.86665 | -1.65249 | 662 ft | 2 kts | 178° |
| 2026-04-28 09:01 | 53.86675 | -1.65250 | 662 ft | 2 kts | 179° |
| 2026-04-28 09:02 | 53.86695 | -1.65248 | 662 ft | 2 kts | 181° |
| 2026-04-28 09:02 | 53.86710 | -1.65248 | 662 ft | 2 kts | 181° |
| 2026-04-28 09:02 | 53.86726 | -1.65247 | 662 ft | 2 kts | 197° |
| 2026-04-28 09:02 | 53.86738 | -1.65233 | 662 ft | 2 kts | 230° |
| 2026-04-28 09:03 | 53.86742 | -1.65224 | 662 ft | 1 kts | 242° |
| 2026-04-28 09:03 | 53.86744 | -1.65219 | 662 ft | 0 kts | 239° |
| 2026-04-28 09:05 | 53.86740 | -1.65233 | 662 ft | 4 kts | 247° |
| 2026-04-28 09:05 | 53.86735 | -1.65305 | 662 ft | 7 kts | 270° |
| 2026-04-28 09:05 | 53.86725 | -1.65391 | 662 ft | 8 kts | 231° |
| 2026-04-28 09:05 | 53.86668 | -1.65421 | 662 ft | 9 kts | 185° |
| 2026-04-28 09:06 | 53.86596 | -1.65433 | 662 ft | 11 kts | 185° |
| 2026-04-28 09:06 | 53.86514 | -1.65438 | 662 ft | 12 kts | 181° |
| 2026-04-28 09:06 | 53.86428 | -1.65447 | 662 ft | 13 kts | 183° |
| 2026-04-28 09:06 | 53.86332 | -1.65456 | 662 ft | 14 kts | 182° |
| 2026-04-28 09:07 | 53.86259 | -1.65459 | 662 ft | 7 kts | 180° |
| 2026-04-28 09:07 | 53.86227 | -1.65462 | 662 ft | 1 kts | 209° |
| 2026-04-28 09:07 | 53.86225 | -1.65490 | 662 ft | 3 kts | 288° |
| 2026-04-28 09:07 | 53.86260 | -1.65552 | 662 ft | 20 kts | 319° |
| 2026-04-28 09:08 | 53.86645 | -1.66143 | 662 ft | 125 kts | 319° |
| 2026-04-28 09:08 | 53.87385 | -1.67322 | 1311 ft | 154 kts | 321° |
| 2026-04-28 09:08 | 53.88120 | -1.68582 | 2396 ft | 158 kts | 316° |
| 2026-04-28 09:08 | 53.88863 | -1.69982 | 3314 ft | 171 kts | 315° |
| 2026-04-28 09:09 | 53.89676 | -1.71565 | 4102 ft | 194 kts | 310° |
| 2026-04-28 09:09 | 53.90261 | -1.73729 | 4974 ft | 220 kts | 284° |
| 2026-04-28 09:09 | 53.90220 | -1.76462 | 5905 ft | 246 kts | 262° |
| 2026-04-28 09:09 | 53.89611 | -1.79247 | 6986 ft | 264 kts | 244° |
| 2026-04-28 09:10 | 53.88530 | -1.81735 | 8373 ft | 266 kts | 235° |
| 2026-04-28 09:10 | 53.87380 | -1.84080 | 9779 ft | 263 kts | 233° |
| 2026-04-28 09:10 | 53.86237 | -1.86388 | 11095 ft | 261 kts | 232° |
| 2026-04-28 09:10 | 53.85065 | -1.88766 | 11993 ft | 275 kts | 232° |
| 2026-04-28 09:11 | 53.84114 | -1.91660 | 12663 ft | 296 kts | 251° |
| 2026-04-28 09:11 | 53.83881 | -1.95216 | 13460 ft | 316 kts | 271° |
| 2026-04-28 09:11 | 53.84532 | -1.98883 | 14304 ft | 339 kts | 291° |
| 2026-04-28 09:11 | 53.85688 | -2.02379 | 15433 ft | 341 kts | 290° |
| 2026-04-28 09:12 | 53.86357 | -2.06105 | 16494 ft | 332 kts | 271° |
| 2026-04-28 09:12 | 53.86436 | -2.09964 | 17566 ft | 330 kts | 265° |
| 2026-04-28 09:12 | 53.86346 | -2.13832 | 18559 ft | 331 kts | 259° |
| 2026-04-28 09:12 | 53.85754 | -2.17509 | 19515 ft | 329 kts | 245° |
| 2026-04-28 09:13 | 53.84544 | -2.20824 | 20475 ft | 332 kts | 231° |
| 2026-04-28 09:13 | 53.82890 | -2.23565 | 21299 ft | 339 kts | 225° |
| 2026-04-28 09:13 | 53.81119 | -2.26262 | 21999 ft | 346 kts | 225° |
| 2026-04-28 09:13 | 53.79348 | -2.28941 | 22791 ft | 349 kts | 225° |
| 2026-04-28 09:14 | 53.77535 | -2.31671 | 23589 ft | 352 kts | 225° |
| 2026-04-28 09:14 | 53.75685 | -2.34451 | 24146 ft | 354 kts | 225° |
| 2026-04-28 09:14 | 53.73852 | -2.37202 | 24410 ft | 354 kts | 225° |
| 2026-04-28 09:14 | 53.72002 | -2.39973 | 24428 ft | 353 kts | 225° |
| 2026-04-28 09:15 | 53.70169 | -2.42713 | 24431 ft | 353 kts | 225° |
| 2026-04-28 09:15 | 53.68320 | -2.45475 | 24432 ft | 353 kts | 225° |
| 2026-04-28 09:15 | 53.66481 | -2.48220 | 24432 ft | 353 kts | 226° |
| 2026-04-28 09:15 | 53.64771 | -2.51143 | 24432 ft | 350 kts | 231° |
| 2026-04-28 09:16 | 53.63272 | -2.54336 | 24432 ft | 349 kts | 236° |
| 2026-04-28 09:16 | 53.61973 | -2.57803 | 24433 ft | 349 kts | 241° |
| 2026-04-28 09:16 | 53.60903 | -2.61465 | 24433 ft | 349 kts | 246° |
| 2026-04-28 09:16 | 53.59948 | -2.65233 | 24435 ft | 351 kts | 246° |
| 2026-04-28 09:17 | 53.59005 | -2.69200 | 24436 ft | 372 kts | 249° |
| 2026-04-28 09:17 | 53.58303 | -2.73475 | 24436 ft | 392 kts | 256° |
| 2026-04-28 09:17 | 53.58131 | -2.78142 | 24431 ft | 410 kts | 269° |
| 2026-04-28 09:17 | 53.58711 | -2.82954 | 24433 ft | 423 kts | 282° |
| 2026-04-28 09:18 | 53.59848 | -2.87593 | 24439 ft | 428 kts | 286° |
| 2026-04-28 09:18 | 53.61074 | -2.92289 | 24436 ft | 428 kts | 286° |
| 2026-04-28 09:18 | 53.62274 | -2.96850 | 24434 ft | 428 kts | 286° |
| 2026-04-28 09:18 | 53.63495 | -3.01489 | 24434 ft | 429 kts | 287° |
| 2026-04-28 09:19 | 53.64705 | -3.06088 | 24433 ft | 429 kts | 287° |
| 2026-04-28 09:19 | 53.65907 | -3.10664 | 24433 ft | 429 kts | 287° |
| 2026-04-28 09:19 | 53.67106 | -3.15237 | 24433 ft | 429 kts | 287° |
| 2026-04-28 09:19 | 53.68312 | -3.19848 | 24433 ft | 429 kts | 287° |
| 2026-04-28 09:20 | 53.69516 | -3.24458 | 24433 ft | 429 kts | 287° |
| 2026-04-28 09:20 | 53.70712 | -3.29052 | 24433 ft | 429 kts | 287° |
| 2026-04-28 09:20 | 53.71917 | -3.33687 | 24433 ft | 429 kts | 287° |
| 2026-04-28 09:20 | 53.73107 | -3.38270 | 24433 ft | 429 kts | 287° |
| 2026-04-28 09:21 | 53.74300 | -3.42876 | 24433 ft | 429 kts | 287° |
| 2026-04-28 09:21 | 53.75496 | -3.47506 | 24433 ft | 429 kts | 287° |
| 2026-04-28 09:21 | 53.76689 | -3.52131 | 24433 ft | 429 kts | 287° |
| 2026-04-28 09:21 | 53.77887 | -3.56787 | 24433 ft | 429 kts | 287° |
| 2026-04-28 09:22 | 53.79073 | -3.61404 | 24433 ft | 429 kts | 287° |
| 2026-04-28 09:22 | 53.80180 | -3.65725 | 24434 ft | 429 kts | 285° |
| 2026-04-28 09:22 | 53.81376 | -3.70409 | 24435 ft | 428 kts | 285° |
| 2026-04-28 09:22 | 53.82568 | -3.75090 | 24435 ft | 428 kts | 285° |
| 2026-04-28 09:23 | 53.83732 | -3.79668 | 24436 ft | 428 kts | 285° |
| 2026-04-28 09:23 | 53.84909 | -3.84300 | 24438 ft | 428 kts | 285° |
| 2026-04-28 09:23 | 53.86085 | -3.88940 | 24441 ft | 428 kts | 285° |
| 2026-04-28 09:23 | 53.87255 | -3.93566 | 24444 ft | 428 kts | 285° |
| 2026-04-28 09:24 | 53.88433 | -3.98227 | 24447 ft | 428 kts | 285° |
| 2026-04-28 09:24 | 53.89600 | -4.02855 | 24450 ft | 428 kts | 285° |
| 2026-04-28 09:24 | 53.90772 | -4.07515 | 24453 ft | 428 kts | 285° |
| 2026-04-28 09:24 | 53.91931 | -4.12136 | 24455 ft | 428 kts | 285° |
| 2026-04-28 09:25 | 53.93098 | -4.16792 | 24456 ft | 428 kts | 285° |
| 2026-04-28 09:25 | 53.94255 | -4.21420 | 24458 ft | 428 kts | 285° |
| 2026-04-28 09:25 | 53.95421 | -4.26092 | 24458 ft | 428 kts | 285° |
| 2026-04-28 09:25 | 53.96578 | -4.30742 | 24459 ft | 428 kts | 285° |
| 2026-04-28 09:26 | 53.97741 | -4.35428 | 24459 ft | 428 kts | 285° |
| 2026-04-28 09:26 | 53.98889 | -4.40062 | 24459 ft | 428 kts | 285° |
| 2026-04-28 09:26 | 54.00053 | -4.44684 | 24457 ft | 430 kts | 287° |
| 2026-04-28 09:26 | 54.01460 | -4.49245 | 24458 ft | 436 kts | 292° |
| 2026-04-28 09:27 | 54.05038 | -4.57693 | 24459 ft | 448 kts | 302° |
| 2026-04-28 09:27 | 54.07127 | -4.61683 | 24459 ft | 450 kts | 304° |
| 2026-04-28 09:27 | 54.09170 | -4.65488 | 24460 ft | 450 kts | 303° |
| 2026-04-28 09:28 | 54.11365 | -4.69553 | 24459 ft | 450 kts | 303° |
| 2026-04-28 09:28 | 54.13528 | -4.73569 | 24459 ft | 449 kts | 303° |
| 2026-04-28 09:28 | 54.15701 | -4.77614 | 24459 ft | 449 kts | 303° |
| 2026-04-28 09:28 | 54.17877 | -4.81678 | 24459 ft | 449 kts | 303° |
| 2026-04-28 09:29 | 54.20032 | -4.85715 | 24459 ft | 450 kts | 303° |
| 2026-04-28 09:29 | 54.22208 | -4.89799 | 24459 ft | 451 kts | 303° |
| 2026-04-28 09:29 | 54.24273 | -4.93684 | 24459 ft | 452 kts | 303° |
| 2026-04-28 09:29 | 54.26401 | -4.97694 | 24459 ft | 453 kts | 303° |
| 2026-04-28 09:30 | 54.28431 | -5.01524 | 24459 ft | 454 kts | 303° |
| 2026-04-28 09:30 | 54.30567 | -5.05563 | 24459 ft | 455 kts | 303° |
| 2026-04-28 09:30 | 54.32684 | -5.09568 | 24458 ft | 454 kts | 303° |
| 2026-04-28 09:30 | 54.34792 | -5.13550 | 24267 ft | 444 kts | 303° |
| 2026-04-28 09:31 | 54.36852 | -5.17448 | 23680 ft | 433 kts | 303° |
| 2026-04-28 09:31 | 54.38824 | -5.21201 | 22983 ft | 424 kts | 303° |
| 2026-04-28 09:31 | 54.40803 | -5.24980 | 22288 ft | 416 kts | 304° |
| 2026-04-28 09:31 | 54.42739 | -5.28683 | 21614 ft | 408 kts | 304° |
| 2026-04-28 09:32 | 54.44617 | -5.32277 | 20967 ft | 401 kts | 304° |
| 2026-04-28 09:32 | 54.46500 | -5.35743 | 20320 ft | 396 kts | 306° |
| 2026-04-28 09:32 | 54.48407 | -5.39156 | 19600 ft | 392 kts | 307° |
| 2026-04-28 09:32 | 54.50246 | -5.42501 | 18849 ft | 386 kts | 303° |
| 2026-04-28 09:33 | 54.51762 | -5.46273 | 18085 ft | 374 kts | 292° |
| 2026-04-28 09:33 | 54.52771 | -5.50284 | 17346 ft | 364 kts | 284° |
| 2026-04-28 09:33 | 54.53566 | -5.54421 | 16609 ft | 361 kts | 283° |
| 2026-04-28 09:33 | 54.54311 | -5.58470 | 16037 ft | 354 kts | 283° |
| 2026-04-28 09:34 | 54.55020 | -5.62465 | 15297 ft | 351 kts | 280° |
| 2026-04-28 09:34 | 54.55137 | -5.66602 | 14574 ft | 341 kts | 261° |
| 2026-04-28 09:34 | 54.54879 | -5.70508 | 14143 ft | 332 kts | 261° |
| 2026-04-28 09:34 | 54.54619 | -5.74433 | 13632 ft | 326 kts | 261° |
| 2026-04-28 09:35 | 54.54378 | -5.78284 | 13130 ft | 321 kts | 261° |
| 2026-04-28 09:35 | 54.54153 | -5.82053 | 12650 ft | 315 kts | 262° |
| 2026-04-28 09:35 | 54.53939 | -5.85755 | 12186 ft | 310 kts | 262° |
| 2026-04-28 09:35 | 54.53732 | -5.89409 | 11734 ft | 305 kts | 262° |
| 2026-04-28 09:36 | 54.53534 | -5.92995 | 11286 ft | 297 kts | 262° |
| 2026-04-28 09:36 | 54.53343 | -5.96477 | 10570 ft | 284 kts | 262° |
| 2026-04-28 09:36 | 54.53161 | -5.99785 | 9866 ft | 274 kts | 261° |
| 2026-04-28 09:36 | 54.52986 | -6.02963 | 9203 ft | 266 kts | 261° |
| 2026-04-28 09:37 | 54.52807 | -6.06105 | 8305 ft | 268 kts | 261° |
| 2026-04-28 09:37 | 54.52622 | -6.09333 | 7301 ft | 273 kts | 261° |
| 2026-04-28 09:37 | 54.52440 | -6.12524 | 6634 ft | 264 kts | 261° |
| 2026-04-28 09:37 | 54.52269 | -6.15579 | 6264 ft | 248 kts | 261° |
| 2026-04-28 09:38 | 54.52104 | -6.18489 | 5938 ft | 246 kts | 261° |
| 2026-04-28 09:38 | 54.51935 | -6.21426 | 5623 ft | 243 kts | 261° |
| 2026-04-28 09:38 | 54.51769 | -6.24298 | 5319 ft | 241 kts | 261° |
| 2026-04-28 09:38 | 54.51604 | -6.27153 | 5021 ft | 239 kts | 261° |
| 2026-04-28 09:39 | 54.51438 | -6.29992 | 4728 ft | 236 kts | 261° |
| 2026-04-28 09:39 | 54.51274 | -6.32795 | 4469 ft | 232 kts | 261° |
| 2026-04-28 09:39 | 54.51118 | -6.35490 | 4352 ft | 222 kts | 261° |
| 2026-04-28 09:39 | 54.50969 | -6.38066 | 4246 ft | 213 kts | 261° |
| 2026-04-28 09:40 | 54.50824 | -6.40577 | 4147 ft | 206 kts | 263° |
| 2026-04-28 09:40 | 54.51021 | -6.43001 | 4020 ft | 211 kts | 295° |
| 2026-04-28 09:40 | 54.52008 | -6.44862 | 3811 ft | 213 kts | 331° |
| 2026-04-28 09:40 | 54.53330 | -6.45969 | 3603 ft | 211 kts | 338° |
| 2026-04-28 09:41 | 54.54671 | -6.46946 | 3444 ft | 210 kts | 339° |
| 2026-04-28 09:41 | 54.56013 | -6.47942 | 3289 ft | 209 kts | 338° |
| 2026-04-28 09:41 | 54.57368 | -6.48808 | 3128 ft | 207 kts | 356° |
| 2026-04-28 09:41 | 54.58699 | -6.48272 | 2977 ft | 197 kts | 43° |
| 2026-04-28 09:42 | 54.59432 | -6.46420 | 2865 ft | 181 kts | 72° |
| 2026-04-28 09:42 | 54.59830 | -6.44394 | 2734 ft | 176 kts | 75° |
| 2026-04-28 09:42 | 54.60234 | -6.42410 | 2599 ft | 176 kts | 73° |
| 2026-04-28 09:42 | 54.60691 | -6.40449 | 2381 ft | 177 kts | 70° |
| 2026-04-28 09:43 | 54.61185 | -6.38546 | 2171 ft | 168 kts | 69° |
| 2026-04-28 09:43 | 54.61660 | -6.36795 | 1941 ft | 157 kts | 68° |
| 2026-04-28 09:43 | 54.62110 | -6.35132 | 1708 ft | 146 kts | 68° |
| 2026-04-28 09:43 | 54.62521 | -6.33605 | 1553 ft | 130 kts | 69° |
| 2026-04-28 09:44 | 54.62879 | -6.32272 | 1360 ft | 116 kts | 69° |
| 2026-04-28 09:44 | 54.63214 | -6.31015 | 1231 ft | 115 kts | 69° |
| 2026-04-28 09:44 | 54.63550 | -6.29757 | 1075 ft | 115 kts | 69° |
| 2026-04-28 09:44 | 54.63885 | -6.28509 | 924 ft | 115 kts | 68° |
| 2026-04-28 09:45 | 54.64221 | -6.27259 | 773 ft | 114 kts | 68° |
| 2026-04-28 09:45 | 54.64554 | -6.26022 | 618 ft | 114 kts | 68° |
| 2026-04-28 09:45 | 54.64889 | -6.24775 | 479 ft | 114 kts | 68° |
| 2026-04-28 09:45 | 54.65223 | -6.23534 | 339 ft | 113 kts | 68° |
| 2026-04-28 09:46 | 54.65535 | -6.22377 | 277 ft | 89 kts | 62° |
| 2026-04-28 09:46 | 54.65720 | -6.21670 | 277 ft | 39 kts | 66° |
| 2026-04-28 09:46 | 54.65789 | -6.21412 | 277 ft | 18 kts | 64° |
| 2026-04-28 09:46 | 54.65844 | -6.21315 | 277 ft | 8 kts | 11° |
| 2026-04-28 09:47 | 54.65885 | -6.21336 | 277 ft | 5 kts | 334° |
| 2026-04-28 09:47 | 54.65922 | -6.21367 | 277 ft | 6 kts | 335° |
| 2026-04-28 09:47 | 54.65957 | -6.21427 | 277 ft | 8 kts | 285° |
| 2026-04-28 09:47 | 54.65945 | -6.21529 | 277 ft | 9 kts | 246° |
| 2026-04-28 09:48 | 54.65916 | -6.21641 | 277 ft | 10 kts | 246° |
| 2026-04-28 09:48 | 54.65883 | -6.21767 | 277 ft | 12 kts | 244° |
| 2026-04-28 09:48 | 54.65845 | -6.21906 | 277 ft | 13 kts | 252° |
| 2026-04-28 09:48 | 54.65875 | -6.22024 | 277 ft | 11 kts | 329° |
| 2026-04-28 09:49 | 54.65952 | -6.22086 | 277 ft | 12 kts | 343° |
| 2026-04-28 09:49 | 54.66016 | -6.22066 | 277 ft | 0 kts | 22° |